Aeroporto :
LOGIN :

Iscrizione | Disclaimer

   EN    FR    IT 

 










Sommario :    VFR   VFR Marginale   IFR   IFR Intensivo   IFR Molto Intensivo
Visibilità : 
Base nubi : 
>= 8 km
>= 3000ft
5 / 8 km
1000 / 3000 ft
1500m / 5 km
500 / 1000 ft
800 / 1500m
200 / 500 ft
< 800m
< 200 ft
Simboli :   Temporali  Nebbia  Neve Forte  Precipitazioni Forti  Vento > 20 kt
SIGMETs :   Varie  Temporali  Ghiacco  Turbolenza  Onda orograficha  Ceneri Vulcaniche






- Altitudine del aeroporto : 362 ft
- Codice IATA : WAW


EPWA - Warsaw Okecie

ULTIMO METAR :
  • 142100Z 06006KT 9999 BKN031 04/02 Q1016 TEMPO BKN015

METARs OBSOLETI :
  • 142030Z 07008KT 9999 FEW010 BKN032 04/02 Q1016 BECMG BKN010
  • 142000Z 07007KT 9999 SCT012 BKN032 04/02 Q1017 BECMG BKN010
  • 141930Z 07007KT 9999 BKN011 05/02 Q1017 BECMG BKN010
  • 141900Z 08008KT 9999 BKN012 05/02 Q1017 BECMG BKN010
  • 141830Z 08008KT 9999 BKN013 05/02 Q1016 BECMG BKN010
  • 141800Z 06007KT 030V100 9999 BKN014 05/02 Q1016 BECMG BKN010

TAF TAF EPWA
Valido dal 14 a 21 ore il 15 a 21 ore UTC


142030Z 1421/1521 07009KT 9999 BKN030
BECMG 1421/1423 BKN011
BECMG 1500/1502 BKN006
TEMPO 1502/1509 2000 -RA BR BKN002
BECMG 1509/1511 13010KT
TEMPO 1509/1512 3000 -RA BR BKN004
TEMPO 1515/1521 BKN003



MetMap, La meteo Aeronautica in un colpo d'occhio ! - Copyright ORBIFLY Dicembre 2007 - Disclaimer

ORBIFLY MET'MAP TEAM :

Programmazione e sviluppo : Alexandra Zaïnal
Concezione e sviluppo : Baudouin d'Aumeries
Co-Programmazione e sviluppo : Marc-Olivier Méhu
Supporto tecnico e logistico : Manuel Goepfert
Aiuto per la traduzione : Arnaldo La Scala

Contatto : metmap@orbifly.com




FONTI E CREDITI :

   NOAA